createdAt,value
2023-05-08T00:00:14.312Z,81.9033
2023-05-08T00:01:14.339Z,81.8992
2023-05-08T00:02:14.974Z,81.8922
2023-05-08T00:03:15.472Z,81.8970
2023-05-08T00:04:16.506Z,81.9006
2023-05-08T00:06:17.484Z,81.8938
2023-05-08T00:07:18.249Z,81.8880
2023-05-08T00:08:19.736Z,81.8915
2023-05-08T00:09:20.251Z,81.8817
2023-05-08T00:10:20.982Z,81.8671
2023-05-08T00:11:22.212Z,81.8813
2023-05-08T00:16:05.150Z,81.9611
2023-05-08T00:17:05.309Z,81.9389
2023-05-08T00:18:06.824Z,81.9540
2023-05-08T00:19:07.911Z,81.9757
2023-05-08T00:20:09.036Z,81.9678
2023-05-08T00:21:09.164Z,81.9701
2023-05-08T00:22:09.886Z,81.9777
2023-05-08T00:23:10.998Z,81.9969
2023-05-08T00:24:12.323Z,81.9925
2023-05-08T00:25:12.578Z,81.9884
2023-05-08T00:26:13.711Z,81.9951
2023-05-08T00:27:14.239Z,82.0468
2023-05-08T00:28:15.135Z,82.0760
2023-05-08T00:29:15.195Z,82.0814
2023-05-08T00:30:16.907Z,82.0793
2023-05-08T00:31:16.634Z,82.0950
2023-05-08T00:32:16.965Z,82.1121
2023-05-08T00:33:18.909Z,82.1393
2023-05-08T00:36:43.723Z,82.2738
2023-05-08T00:37:43.811Z,82.2619
2023-05-08T00:38:44.649Z,82.2534
2023-05-08T00:39:45.484Z,82.2633
2023-05-08T00:40:46.168Z,82.2756
2023-05-08T00:41:47.112Z,82.2753
2023-05-08T00:42:48.228Z,82.2804
2023-05-08T00:43:49.022Z,82.2804
2023-05-08T00:44:50.799Z,82.2886
2023-05-08T00:45:51.731Z,82.3277
2023-05-08T00:46:52.708Z,82.3508
2023-05-08T00:47:53.710Z,82.3674
2023-05-08T00:48:54.390Z,82.3625
2023-05-08T00:49:56.387Z,82.3871
2023-05-08T00:51:01.915Z,82.3821
2023-05-08T00:51:59.208Z,82.3883
2023-05-08T00:53:00.021Z,82.4088
2023-05-08T00:54:01.225Z,82.4211
2023-05-08T00:55:02.414Z,82.4315
2023-05-08T00:56:03.751Z,82.4451
2023-05-08T00:57:05.133Z,82.4497
2023-05-08T00:58:06.000Z,82.4484
2023-05-08T00:59:07.289Z,82.4492
2023-05-08T01:00:08.222Z,82.4725
2023-05-08T01:01:09.574Z,82.5129
2023-05-08T01:02:11.344Z,82.5160
2023-05-08T01:04:12.747Z,82.5228
2023-05-08T01:05:12.998Z,82.5282
2023-05-08T01:08:03.853Z,82.5897
2023-05-08T01:09:04.477Z,82.5799
2023-05-08T01:10:04.561Z,82.5736
2023-05-08T01:11:06.145Z,82.5988
2023-05-08T01:12:06.110Z,82.6013
2023-05-08T01:13:06.213Z,82.6024
2023-05-08T01:14:06.814Z,82.6216
2023-05-08T01:15:08.435Z,82.6331
2023-05-08T01:16:09.473Z,82.6636
2023-05-08T01:17:09.826Z,82.6732
2023-05-08T01:18:09.847Z,82.6572
2023-05-08T01:19:10.870Z,82.6527
2023-05-08T01:20:12.159Z,82.6567
2023-05-08T01:21:12.213Z,82.6531
2023-05-08T01:22:12.641Z,82.6666
2023-05-08T01:23:14.132Z,82.6744
2023-05-08T01:24:15.012Z,82.6748
2023-05-08T01:25:16.011Z,82.6834
2023-05-08T01:26:16.391Z,82.7346
2023-05-08T01:27:17.393Z,82.8485
2023-05-08T01:28:17.515Z,82.8836
2023-05-08T01:29:18.989Z,82.8977
2023-05-08T01:30:19.133Z,82.9380
2023-05-08T01:32:19.057Z,83.0136
2023-05-08T01:33:20.486Z,83.0500
2023-05-08T01:36:21.619Z,83.0434
2023-05-08T01:37:22.282Z,83.0667
2023-05-08T01:38:22.631Z,83.0705
2023-05-08T01:39:23.549Z,83.0866
2023-05-08T01:40:24.098Z,83.1094
2023-05-08T01:41:25.608Z,83.1379
2023-05-08T01:42:26.365Z,83.1698
2023-05-08T01:43:27.434Z,83.1845
2023-05-08T01:44:28.507Z,83.1955
2023-05-08T01:45:29.588Z,83.1966
2023-05-08T01:46:30.702Z,83.2108
2023-05-08T01:51:02.068Z,83.2377
2023-05-08T01:52:02.103Z,83.3694
2023-05-08T01:53:03.190Z,83.3535
2023-05-08T01:55:04.653Z,83.3261
2023-05-08T01:56:04.738Z,83.3304
2023-05-08T01:57:06.068Z,83.3357
2023-05-08T01:58:06.789Z,83.3366
2023-05-08T01:59:06.793Z,83.3537
2023-05-08T02:00:07.974Z,83.3691
2023-05-08T02:02:08.391Z,83.3823
2023-05-08T02:03:08.762Z,83.4001
2023-05-08T02:04:10.331Z,83.4021
2023-05-08T02:06:10.886Z,83.4145
2023-05-08T02:07:11.370Z,83.4307
2023-05-08T02:08:12.668Z,83.4442
2023-05-08T02:09:13.177Z,83.4546
2023-05-08T02:10:14.362Z,83.4742
2023-05-08T02:12:14.492Z,83.4921
2023-05-08T02:13:16.308Z,83.4942
2023-05-08T02:14:16.963Z,83.5111
2023-05-08T02:15:18.312Z,83.5286
2023-05-08T02:16:19.426Z,83.5517
2023-05-08T02:25:29.223Z,83.5794
2023-05-08T02:26:29.866Z,83.5820
2023-05-08T02:27:30.369Z,83.5873
2023-05-08T02:28:31.273Z,83.6027
2023-05-08T02:29:32.291Z,83.6064
2023-05-08T02:30:32.579Z,83.6075
2023-05-08T02:31:33.690Z,83.6060
2023-05-08T02:32:34.477Z,83.6067
2023-05-08T02:33:35.140Z,83.6091
2023-05-08T02:34:35.223Z,83.6102
2023-05-08T02:35:35.171Z,83.6217
2023-05-08T02:36:35.228Z,83.6235
2023-05-08T02:37:36.139Z,83.6091
2023-05-08T02:38:38.683Z,83.5966
2023-05-08T02:39:38.625Z,83.5963
2023-05-08T02:40:39.842Z,83.5909
2023-05-08T02:41:40.094Z,83.5929
2023-05-08T02:42:41.294Z,83.5946
2023-05-08T02:43:43.443Z,83.5972
2023-05-08T02:44:43.616Z,83.5934
2023-05-08T02:45:44.005Z,83.5849
2023-05-08T02:46:45.254Z,83.5852
2023-05-08T02:47:44.869Z,83.5784
2023-05-08T02:48:45.407Z,83.5760
2023-05-08T02:49:46.257Z,83.5670
2023-05-08T02:50:47.894Z,83.5640
2023-05-08T02:51:48.649Z,83.5706
2023-05-08T02:52:48.295Z,83.5693
2023-05-08T02:53:49.569Z,83.5661
2023-05-08T02:54:49.846Z,83.5607
2023-05-08T02:55:50.090Z,83.5557
2023-05-08T02:56:50.359Z,83.5725
2023-05-08T02:57:51.005Z,83.5943
2023-05-08T02:58:51.917Z,83.5918
2023-05-08T02:59:52.680Z,83.5855
2023-05-08T03:00:52.719Z,83.5805
2023-05-08T03:01:53.836Z,83.5844
2023-05-08T03:02:53.971Z,83.5899
2023-05-08T03:03:55.054Z,83.5952
2023-05-08T03:04:55.984Z,83.6002
2023-05-08T03:05:56.737Z,83.5933
2023-05-08T03:06:57.400Z,83.5921
2023-05-08T03:07:57.951Z,83.5902
2023-05-08T03:08:58.009Z,83.5840
2023-05-08T03:09:58.931Z,83.5696
2023-05-08T03:10:59.358Z,83.5695
2023-05-08T03:11:59.574Z,83.5653
2023-05-08T03:13:00.292Z,83.5650
2023-05-08T03:14:01.274Z,83.5805
2023-05-08T03:19:04.661Z,83.5521
2023-05-08T03:20:04.836Z,83.5833
2023-05-08T03:21:04.894Z,83.5901
2023-05-08T03:22:06.008Z,83.5902
2023-05-08T03:23:07.490Z,83.5958
2023-05-08T03:24:07.849Z,83.5962
2023-05-08T03:25:08.272Z,83.6039
2023-05-08T03:26:09.768Z,83.6068
2023-05-08T03:29:10.790Z,83.6611
2023-05-08T03:33:12.765Z,83.6902
2023-05-08T03:34:13.530Z,83.6975
2023-05-08T03:35:14.715Z,83.7062
2023-05-08T03:36:15.597Z,83.7119
2023-05-08T03:37:16.104Z,83.7118
2023-05-08T03:38:17.433Z,83.7140
2023-05-08T03:39:17.857Z,83.7100
2023-05-08T03:40:17.910Z,83.7112
2023-05-08T03:41:19.118Z,83.7131
2023-05-08T03:42:20.254Z,83.7043
2023-05-08T03:43:21.019Z,83.6941
2023-05-08T03:44:21.035Z,83.6908
2023-05-08T03:45:22.100Z,83.6871
2023-05-08T03:46:23.567Z,83.6811
2023-05-08T03:47:23.780Z,83.6751
2023-05-08T03:48:24.123Z,83.6682
2023-05-08T03:49:25.990Z,83.6621
2023-05-08T03:50:26.811Z,83.6541
2023-05-08T03:51:29.414Z,83.6576
2023-05-08T03:54:30.712Z,83.6405
2023-05-08T03:55:31.942Z,83.6379
2023-05-08T03:56:32.671Z,83.6338
2023-05-08T03:57:32.745Z,83.6299
2023-05-08T03:58:33.623Z,83.6306
2023-05-08T03:59:33.761Z,83.6354
2023-05-08T04:00:34.570Z,83.6299
2023-05-08T04:01:35.725Z,83.6383
2023-05-08T04:02:36.708Z,83.6482
2023-05-08T04:03:36.789Z,83.6670
2023-05-08T04:04:38.076Z,83.6630
2023-05-08T04:05:38.279Z,83.6585
2023-05-08T04:06:49.356Z,83.6569
2023-05-08T04:07:43.330Z,83.6793
2023-05-08T04:09:43.083Z,83.6690
2023-05-08T04:10:44.664Z,83.6705
2023-05-08T04:12:44.413Z,83.6518
2023-05-08T04:13:45.905Z,83.6641
2023-05-08T04:14:47.007Z,83.6646
2023-05-08T04:15:48.049Z,83.6523
2023-05-08T04:16:50.156Z,83.6490
2023-05-08T04:17:50.199Z,83.6623
2023-05-08T04:18:50.564Z,83.6678
2023-05-08T04:19:51.257Z,83.6666
2023-05-08T04:21:51.643Z,83.6704
2023-05-08T04:23:52.581Z,83.7063
2023-05-08T04:24:52.830Z,83.7212
2023-05-08T04:25:53.865Z,83.7223
2023-05-08T04:27:54.134Z,83.7323
2023-05-08T04:29:55.512Z,83.7575
2023-05-08T04:30:55.940Z,83.7844
2023-05-08T04:31:56.794Z,83.7984
2023-05-08T04:32:57.761Z,83.7889
2023-05-08T04:33:57.830Z,83.8110
2023-05-08T04:34:58.767Z,83.8129
2023-05-08T04:37:00.272Z,83.8239
2023-05-08T04:39:01.081Z,83.8402
2023-05-08T04:41:01.242Z,83.8400
2023-05-08T04:43:02.139Z,83.8479
2023-05-08T04:44:02.888Z,83.8557
2023-05-08T04:45:05.278Z,83.8660
2023-05-08T04:46:06.933Z,83.8691
2023-05-08T04:48:07.766Z,83.8701
2023-05-08T04:49:09.453Z,83.8724
2023-05-08T04:50:10.049Z,83.8739
2023-05-08T04:51:10.228Z,83.8774
2023-05-08T04:52:11.487Z,83.8736
2023-05-08T04:53:12.432Z,83.8747
2023-05-08T04:54:12.685Z,83.8701
2023-05-08T04:55:13.963Z,83.8667
2023-05-08T04:57:13.879Z,83.8634
2023-05-08T04:59:16.060Z,83.8569
2023-05-08T05:00:15.456Z,83.8549
2023-05-08T05:01:15.926Z,83.8478
2023-05-08T05:02:17.095Z,83.8635
2023-05-08T05:03:17.651Z,83.8435
2023-05-08T05:04:18.948Z,83.8326
2023-05-08T05:05:21.007Z,83.8188
2023-05-08T05:06:28.524Z,83.8134
2023-05-08T05:07:22.440Z,83.8109
2023-05-08T05:09:13.086Z,83.7925
2023-05-08T05:11:14.521Z,83.7695
2023-05-08T05:13:15.221Z,83.7540
2023-05-08T05:15:15.799Z,83.7423
2023-05-08T05:17:16.906Z,83.7247
2023-05-08T05:19:17.834Z,83.6989
2023-05-08T05:20:18.769Z,83.6934
2023-05-08T05:21:19.911Z,83.6883
2023-05-08T05:22:20.576Z,83.6806
2023-05-08T05:23:21.850Z,83.6768
2023-05-08T05:25:22.036Z,83.6714
2023-05-08T05:26:22.397Z,83.6649
2023-05-08T05:27:23.503Z,83.6611
2023-05-08T05:28:23.684Z,83.6506
2023-05-08T05:29:24.820Z,83.6435
2023-05-08T05:30:25.465Z,83.6370
2023-05-08T05:31:27.418Z,83.6382
2023-05-08T05:32:27.406Z,83.6280
2023-05-08T05:33:28.315Z,83.6138
2023-05-08T05:34:29.664Z,83.6150
2023-05-08T05:36:30.530Z,83.6122
2023-05-08T05:38:30.389Z,83.6039
2023-05-08T05:39:30.885Z,83.6053
2023-05-08T05:40:32.230Z,83.6049
2023-05-08T05:42:33.051Z,83.6008
2023-05-08T05:44:33.312Z,83.6016
2023-05-08T05:45:36.690Z,83.5981
2023-05-08T05:46:37.403Z,83.5987
2023-05-08T05:47:38.515Z,83.5929
2023-05-08T05:48:38.746Z,83.5857
2023-05-08T05:49:40.871Z,83.5766
2023-05-08T05:51:41.278Z,83.5627
2023-05-08T05:52:42.943Z,83.5481
2023-05-08T05:53:43.803Z,83.5412
2023-05-08T05:56:45.774Z,83.5078
2023-05-08T05:59:47.109Z,83.4558
2023-05-08T06:00:47.732Z,83.4397
2023-05-08T06:01:47.804Z,83.4257
2023-05-08T06:02:49.041Z,83.4083
2023-05-08T06:03:49.485Z,83.3951
2023-05-08T06:04:50.317Z,83.3834
2023-05-08T06:05:50.366Z,83.3724
2023-05-08T06:06:51.396Z,83.3659
2023-05-08T06:07:51.978Z,83.3541
2023-05-08T06:08:53.440Z,83.3414
2023-05-08T06:09:53.702Z,83.3378
2023-05-08T06:10:54.550Z,83.3283
2023-05-08T06:11:55.529Z,83.3197
2023-05-08T06:12:55.979Z,83.3107
2023-05-08T06:13:57.094Z,83.3075
2023-05-08T06:14:57.727Z,83.3102
2023-05-08T06:16:02.711Z,83.3063
2023-05-08T06:16:58.968Z,83.3186
2023-05-08T06:17:59.759Z,83.3039
2023-05-08T06:19:00.511Z,83.2976
2023-05-08T06:20:00.824Z,83.2907
2023-05-08T06:21:01.917Z,83.2841
2023-05-08T06:22:03.728Z,83.2778
2023-05-08T06:23:04.308Z,83.2843
2023-05-08T06:24:04.948Z,83.2768
2023-05-08T06:25:06.130Z,83.2681
2023-05-08T06:26:07.298Z,83.2633
2023-05-08T06:27:07.664Z,83.2636
2023-05-08T06:28:08.012Z,83.2581
2023-05-08T06:29:08.244Z,83.2545
2023-05-08T06:30:08.425Z,83.2543
2023-05-08T06:31:09.009Z,83.2641
2023-05-08T06:32:09.554Z,83.2605
2023-05-08T06:33:10.291Z,83.2516
2023-05-08T06:34:10.880Z,83.2478
2023-05-08T06:35:11.089Z,83.2402
2023-05-08T06:36:11.177Z,83.2333
2023-05-08T06:37:11.358Z,83.2236
2023-05-08T06:38:11.483Z,83.2190
2023-05-08T06:39:11.726Z,83.2123
2023-05-08T06:40:13.084Z,83.2191
2023-05-08T06:41:15.184Z,83.2237
2023-05-08T06:42:14.122Z,83.2212
2023-05-08T06:43:14.423Z,83.2194
2023-05-08T06:44:14.556Z,83.2154
2023-05-08T06:45:16.100Z,83.2145
2023-05-08T06:46:15.826Z,83.2162
2023-05-08T06:47:16.507Z,83.2153
2023-05-08T06:48:17.093Z,83.2183
2023-05-08T06:49:17.556Z,83.2214
2023-05-08T06:50:17.861Z,83.2225
2023-05-08T06:51:18.171Z,83.2276
2023-05-08T06:52:18.361Z,83.2283
2023-05-08T06:53:18.470Z,83.2311
2023-05-08T06:54:18.552Z,83.2283
2023-05-08T06:55:19.502Z,83.2260
2023-05-08T06:56:19.697Z,83.2273
2023-05-08T06:57:20.089Z,83.2285
2023-05-08T06:58:20.295Z,83.2250
2023-05-08T06:59:21.099Z,83.2339
2023-05-08T07:00:21.511Z,83.2345
2023-05-08T07:01:21.783Z,83.2257
2023-05-08T07:02:22.590Z,83.2192
2023-05-08T07:03:23.210Z,83.2190
2023-05-08T07:04:23.571Z,83.2216
2023-05-08T07:05:24.728Z,83.2214
2023-05-08T07:06:24.908Z,83.2292
2023-05-08T07:07:25.283Z,83.2266
2023-05-08T07:08:25.985Z,83.2311
2023-05-08T07:09:26.428Z,83.2313
2023-05-08T07:10:26.811Z,83.2307
2023-05-08T07:11:26.927Z,83.2273
2023-05-08T07:12:27.249Z,83.2331
2023-05-08T07:13:28.249Z,83.2324
2023-05-08T07:14:28.758Z,83.2351
2023-05-08T07:15:30.142Z,83.2503
2023-05-08T07:16:31.280Z,83.2695
2023-05-08T07:17:32.026Z,83.2603
2023-05-08T07:18:32.329Z,83.2485
2023-05-08T07:19:33.191Z,83.2458
2023-05-08T07:20:33.753Z,83.2459
2023-05-08T07:21:34.110Z,83.2571
2023-05-08T07:22:34.441Z,83.2642
2023-05-08T07:23:34.693Z,83.2517
2023-05-08T07:24:34.781Z,83.2433
2023-05-08T07:25:35.002Z,83.2308
2023-05-08T07:26:35.014Z,83.2169
2023-05-08T07:27:35.202Z,83.1980
2023-05-08T07:28:35.336Z,83.1774
2023-05-08T07:29:35.717Z,83.1549
2023-05-08T07:30:35.797Z,83.1281
2023-05-08T07:31:36.255Z,83.0978
2023-05-08T07:32:36.759Z,83.0593
2023-05-08T07:33:37.108Z,83.0297
2023-05-08T07:34:37.397Z,82.9976
2023-05-08T07:35:38.678Z,82.9687
2023-05-08T07:36:38.930Z,82.9420
2023-05-08T07:37:55.599Z,82.9196
2023-05-08T07:39:18.845Z,82.9056
2023-05-08T07:40:11.338Z,82.8855
2023-05-08T07:41:11.519Z,82.8554
2023-05-08T07:42:12.671Z,82.8325
2023-05-08T07:43:13.225Z,82.8131
2023-05-08T07:44:13.674Z,82.7905
2023-05-08T07:45:14.613Z,82.7843
2023-05-08T07:46:14.515Z,82.7550
2023-05-08T07:47:15.613Z,82.7184
2023-05-08T07:48:21.125Z,82.6904
2023-05-08T07:49:20.947Z,82.6598
2023-05-08T07:51:20.062Z,82.5822
2023-05-08T07:52:20.973Z,82.5428
2023-05-08T07:53:22.809Z,82.5042
2023-05-08T07:54:26.718Z,82.4762
2023-05-08T07:56:25.049Z,82.4362
2023-05-08T07:57:24.952Z,82.4147
2023-05-08T07:58:25.871Z,82.4011
2023-05-08T07:59:27.264Z,82.3875
2023-05-08T08:00:28.316Z,82.3690
2023-05-08T08:02:29.739Z,82.3369
2023-05-08T08:04:31.266Z,82.3054
2023-05-08T08:05:32.657Z,82.2800
2023-05-08T08:06:32.596Z,82.2755
2023-05-08T08:08:34.097Z,82.2684
2023-05-08T08:09:34.148Z,82.2665
2023-05-08T08:10:34.119Z,82.2646
2023-05-08T08:13:37.299Z,82.2616
2023-05-08T08:15:37.331Z,82.2408
2023-05-08T08:16:37.778Z,82.2334
2023-05-08T08:17:38.118Z,82.2331
2023-05-08T08:18:39.442Z,82.2349
2023-05-08T08:19:40.049Z,82.2317
2023-05-08T08:20:41.010Z,82.2491
2023-05-08T08:21:41.081Z,82.2471
2023-05-08T08:22:41.424Z,82.2355
2023-05-08T08:23:41.877Z,82.2337
2023-05-08T08:24:42.252Z,82.2312
2023-05-08T08:25:43.167Z,82.2327
2023-05-08T08:26:43.569Z,82.2352
2023-05-08T08:27:43.819Z,82.2623
2023-05-08T08:28:44.219Z,82.2618
2023-05-08T08:29:44.673Z,82.2607
2023-05-08T08:30:44.909Z,82.2945
2023-05-08T08:31:45.623Z,82.2927
2023-05-08T08:32:46.798Z,82.2912
2023-05-08T08:33:47.708Z,82.2962
2023-05-08T08:34:48.137Z,82.2910
2023-05-08T08:35:48.616Z,82.2760
2023-05-08T08:36:48.909Z,82.2710
2023-05-08T08:37:49.115Z,82.2664
2023-05-08T08:38:50.225Z,82.2768
2023-05-08T08:39:50.195Z,82.2785
2023-05-08T08:40:50.575Z,82.2551
2023-05-08T08:41:50.810Z,82.2653
2023-05-08T08:42:51.116Z,82.2835
2023-05-08T08:43:51.336Z,82.2861
2023-05-08T08:44:51.886Z,82.2946
2023-05-08T08:45:52.092Z,82.3021
2023-05-08T08:46:52.364Z,82.3230
2023-05-08T08:47:53.428Z,82.3152
2023-05-08T08:48:53.678Z,82.3172
2023-05-08T08:49:54.054Z,82.2987
2023-05-08T08:50:55.310Z,82.2713
2023-05-08T08:51:55.611Z,82.2501
2023-05-08T08:52:55.968Z,82.2683
2023-05-08T08:53:56.327Z,82.2320
2023-05-08T08:54:56.618Z,82.2102
2023-05-08T08:55:57.083Z,82.1891
2023-05-08T08:56:57.605Z,82.1674
2023-05-08T08:57:57.766Z,82.1396
2023-05-08T08:58:58.224Z,82.1220
2023-05-08T08:59:58.831Z,82.1139
2023-05-08T09:00:59.478Z,82.1168
2023-05-08T09:02:00.236Z,82.0963
2023-05-08T09:03:01.391Z,82.0772
2023-05-08T09:04:01.359Z,82.0863
2023-05-08T09:05:02.123Z,82.0834
2023-05-08T09:06:03.238Z,82.0640
2023-05-08T09:07:03.910Z,82.0136
2023-05-08T09:08:04.108Z,81.9882
2023-05-08T09:09:04.543Z,81.9649
2023-05-08T09:10:04.864Z,81.9349
2023-05-08T09:11:05.153Z,81.9008
2023-05-08T09:12:05.790Z,81.8406
2023-05-08T09:13:06.135Z,81.7644
2023-05-08T09:14:07.361Z,81.7084
2023-05-08T09:15:07.856Z,81.6428
2023-05-08T09:16:09.466Z,81.5669
2023-05-08T09:17:10.717Z,81.4943
2023-05-08T09:18:11.282Z,81.4347
2023-05-08T09:19:11.784Z,81.4009
2023-05-08T09:20:12.167Z,81.3410
2023-05-08T09:21:12.333Z,81.2874
2023-05-08T09:22:12.589Z,81.2335
2023-05-08T09:23:12.912Z,81.1695
2023-05-08T09:24:13.386Z,81.1167
2023-05-08T09:25:14.034Z,81.0685
2023-05-08T09:26:14.302Z,81.0350
2023-05-08T09:27:14.926Z,81.0017
2023-05-08T09:28:15.368Z,80.9541
2023-05-08T09:29:15.802Z,80.9046
2023-05-08T09:30:16.716Z,80.8745
2023-05-08T09:31:17.000Z,80.8347
2023-05-08T09:32:17.422Z,80.7663
2023-05-08T09:33:18.069Z,80.6852
2023-05-08T09:34:19.225Z,80.6188
2023-05-08T09:35:19.421Z,80.5665
2023-05-08T09:36:19.926Z,80.5082
2023-05-08T09:37:20.282Z,80.4372
2023-05-08T09:38:20.464Z,80.3699
2023-05-08T09:39:20.861Z,80.3021
2023-05-08T09:40:21.269Z,80.1980
2023-05-08T09:41:22.013Z,80.1452
2023-05-08T09:42:22.273Z,80.1536
2023-05-08T09:43:22.779Z,80.1788
2023-05-08T09:44:23.251Z,80.2053
2023-05-08T09:45:24.275Z,80.2275
2023-05-08T09:46:24.857Z,80.2385
2023-05-08T09:47:25.897Z,80.2399
2023-05-08T09:48:26.530Z,80.2637
2023-05-08T09:49:26.905Z,80.2573
2023-05-08T09:50:28.116Z,80.2436
2023-05-08T09:51:28.755Z,80.2188
2023-05-08T09:52:29.144Z,80.1731
2023-05-08T09:53:29.624Z,80.1119
2023-05-08T09:54:30.016Z,80.0467
2023-05-08T09:55:30.295Z,79.9639
2023-05-08T09:56:30.748Z,79.8826
2023-05-08T09:57:31.161Z,79.7821
2023-05-08T09:58:31.963Z,79.6779
2023-05-08T09:59:34.250Z,79.5718
2023-05-08T10:00:32.756Z,79.4604
2023-05-08T10:01:33.338Z,79.3416
2023-05-08T10:02:33.974Z,79.2600
2023-05-08T10:03:35.101Z,79.1891
2023-05-08T10:04:36.010Z,79.1149
2023-05-08T10:05:36.574Z,79.0322
2023-05-08T10:06:36.848Z,78.9189
2023-05-08T10:07:37.307Z,78.7747
2023-05-08T10:08:37.786Z,78.6122
2023-05-08T10:09:49.714Z,78.4659
2023-05-08T10:10:39.331Z,78.3551
2023-05-08T10:11:39.794Z,78.2549
2023-05-08T10:12:40.038Z,78.1639
2023-05-08T10:13:40.996Z,78.0516
2023-05-08T10:14:43.123Z,77.9411
2023-05-08T10:15:43.078Z,77.8649
2023-05-08T10:16:43.907Z,77.7959
2023-05-08T10:17:44.824Z,77.6892
2023-05-08T10:18:45.187Z,77.6395
2023-05-08T10:19:45.725Z,77.6003
2023-05-08T10:20:46.714Z,77.5570
2023-05-08T10:21:47.193Z,77.4891
2023-05-08T10:22:47.427Z,77.3750
2023-05-08T10:23:47.806Z,77.3350
2023-05-08T10:24:48.129Z,77.3168
2023-05-08T10:25:48.606Z,77.2639
2023-05-08T10:27:05.109Z,77.2330
2023-05-08T10:27:51.138Z,77.2137
2023-05-08T10:28:51.450Z,77.0835
2023-05-08T10:29:51.938Z,76.8101
2023-05-08T10:30:52.376Z,76.7644
2023-05-08T10:31:53.249Z,76.7982
2023-05-08T10:32:53.887Z,76.8301
2023-05-08T10:33:54.463Z,76.8280
2023-05-08T10:34:54.594Z,76.7892
2023-05-08T10:35:54.905Z,76.7594
2023-05-08T10:36:55.890Z,76.7322
2023-05-08T10:37:56.412Z,76.6961
2023-05-08T10:38:56.879Z,76.6472
2023-05-08T10:39:57.181Z,76.5882
2023-05-08T10:40:57.785Z,76.5314
2023-05-08T10:41:58.316Z,76.4255
2023-05-08T10:42:58.728Z,76.3187
2023-05-08T10:44:01.072Z,76.0390
2023-05-08T10:45:00.047Z,75.7751
2023-05-08T10:46:00.712Z,75.8365
2023-05-08T10:47:01.387Z,75.7301
2023-05-08T10:48:02.083Z,75.6734
2023-05-08T10:49:02.745Z,75.6688
2023-05-08T10:50:02.943Z,75.6092
2023-05-08T10:51:04.078Z,75.5066
2023-05-08T10:52:04.295Z,75.3482
2023-05-08T10:53:04.856Z,75.0928
2023-05-08T10:54:05.311Z,74.9488
2023-05-08T10:55:05.976Z,74.8069
2023-05-08T10:56:06.164Z,74.6233
2023-05-08T10:58:26.735Z,74.2306
2023-05-08T10:59:27.649Z,74.0816
2023-05-08T11:00:28.400Z,73.6612
2023-05-08T11:01:28.669Z,73.4212
2023-05-08T11:02:29.710Z,73.0882
2023-05-08T11:03:32.627Z,73.0140
2023-05-08T11:04:31.487Z,72.9330
2023-05-08T11:05:32.157Z,72.6436
2023-05-08T11:06:32.626Z,72.7510
2023-05-08T11:07:33.299Z,72.8003
2023-05-08T11:08:33.825Z,72.8066
2023-05-08T11:09:34.179Z,72.6924
2023-05-08T11:10:34.944Z,72.6344
2023-05-08T11:11:35.611Z,72.6277
2023-05-08T11:12:36.177Z,72.6121
2023-05-08T11:13:37.138Z,72.5078
2023-05-08T11:14:37.536Z,72.4897
2023-05-08T11:15:38.120Z,72.4681
2023-05-08T11:16:39.130Z,72.3817
2023-05-08T11:17:40.321Z,72.2116
2023-05-08T11:18:49.549Z,72.2040
2023-05-08T11:19:46.403Z,72.1621
2023-05-08T11:20:47.449Z,72.0709
2023-05-08T11:21:48.006Z,71.7904
2023-05-08T11:22:48.585Z,71.3680
2023-05-08T11:23:48.814Z,71.4628
2023-05-08T11:24:49.342Z,71.7286
2023-05-08T11:25:49.878Z,72.0489
2023-05-08T11:26:50.434Z,72.3412
2023-05-08T11:27:50.969Z,72.6016
2023-05-08T11:28:51.539Z,72.8209
2023-05-08T11:29:52.193Z,72.9902
2023-05-08T11:30:52.982Z,73.1266
2023-05-08T11:31:54.107Z,73.1509
2023-05-08T11:32:54.970Z,73.2371
2023-05-08T11:33:55.584Z,73.3126
2023-05-08T11:34:56.923Z,73.3457
2023-05-08T11:35:57.582Z,73.4327
2023-05-08T11:36:58.182Z,73.4781
2023-05-08T11:37:58.609Z,73.4436
2023-05-08T11:38:59.229Z,73.4476
2023-05-08T11:39:59.862Z,73.4644
2023-05-08T11:41:00.563Z,73.4176
2023-05-08T11:42:00.972Z,73.3712
2023-05-08T11:43:01.481Z,73.3282
2023-05-08T11:44:02.042Z,73.3330
2023-05-08T11:45:02.922Z,73.2882
2023-05-08T11:46:03.515Z,73.2109
2023-05-08T11:47:04.614Z,73.0814
2023-05-08T11:48:05.617Z,72.9433
2023-05-08T11:49:06.173Z,72.7862
2023-05-08T11:50:06.376Z,72.6386
2023-05-08T11:51:06.986Z,72.5007
2023-05-08T11:52:07.562Z,72.3683
2023-05-08T11:53:08.162Z,72.2769
2023-05-08T11:54:08.540Z,72.2360
2023-05-08T11:55:08.499Z,72.3129
2023-05-08T11:56:09.097Z,72.3566
2023-05-08T11:57:09.595Z,72.3936
2023-05-08T11:58:09.871Z,72.3927
2023-05-08T11:59:10.612Z,72.3755
2023-05-08T12:00:11.617Z,72.3444
2023-05-08T12:01:11.701Z,72.3081
2023-05-08T12:02:12.115Z,72.2429
2023-05-08T12:03:12.738Z,72.0837
2023-05-08T12:04:13.593Z,71.9019
2023-05-08T12:05:14.202Z,71.7106
2023-05-08T12:06:14.991Z,71.6384
2023-05-08T12:07:15.622Z,71.4835
2023-05-08T12:08:16.192Z,71.4327
2023-05-08T12:09:17.207Z,71.3669
2023-05-08T12:10:18.156Z,71.2951
2023-05-08T12:11:17.483Z,71.2635
2023-05-08T12:12:18.804Z,71.2342
2023-05-08T12:13:20.196Z,71.2309
2023-05-08T12:14:20.383Z,71.2085
2023-05-08T12:15:21.465Z,71.1561
2023-05-08T12:16:23.032Z,71.0659
2023-05-08T12:17:23.409Z,70.9286
2023-05-08T12:18:23.805Z,70.8056
2023-05-08T12:19:24.623Z,70.7117
2023-05-08T12:20:25.294Z,70.6460
2023-05-08T12:21:26.521Z,70.6092
2023-05-08T12:22:27.596Z,70.5314
2023-05-08T12:23:28.842Z,70.3469
2023-05-08T12:24:29.935Z,69.5704
2023-05-08T12:25:30.420Z,68.4354
2023-05-08T12:26:31.690Z,67.2090
2023-05-08T12:27:32.762Z,66.2537
2023-05-08T12:28:33.980Z,65.3587
2023-05-08T12:29:34.921Z,64.6042
2023-05-08T12:33:36.159Z,62.2117
2023-05-08T12:34:37.438Z,61.7259
2023-05-08T12:35:38.522Z,61.2739
2023-05-08T12:36:39.683Z,60.7518
2023-05-08T12:37:40.859Z,60.2275
2023-05-08T12:38:41.967Z,59.7929
2023-05-08T12:39:43.157Z,59.6888
2023-05-08T12:40:43.409Z,59.8955
2023-05-08T12:41:44.668Z,60.3867
2023-05-08T12:42:44.705Z,60.8133
2023-05-08T12:43:45.936Z,61.3170
2023-05-08T12:44:47.092Z,62.0485
2023-05-08T12:45:48.262Z,62.8048
2023-05-08T13:03:02.634Z,69.4977
2023-05-08T13:04:03.681Z,69.6909
2023-05-08T13:05:03.670Z,69.9037
2023-05-08T13:06:04.844Z,70.0770
2023-05-08T13:07:06.141Z,70.2465
2023-05-08T13:08:07.353Z,70.4170
2023-05-08T13:09:08.586Z,70.5805
2023-05-08T13:10:09.974Z,70.7343
2023-05-08T13:11:10.160Z,70.8941
2023-05-08T13:12:11.429Z,71.0319
2023-05-08T13:13:11.444Z,71.1599
2023-05-08T13:14:11.497Z,71.2989
2023-05-08T13:15:11.689Z,71.4244
2023-05-08T13:16:11.890Z,71.5377
2023-05-08T13:17:12.113Z,71.6475
2023-05-08T13:18:13.736Z,71.7437
2023-05-08T13:19:14.027Z,71.8507
2023-05-08T13:20:14.198Z,71.9457
2023-05-08T13:21:14.435Z,72.0410
2023-05-08T13:22:14.381Z,72.1400
2023-05-08T13:23:15.670Z,72.2443
2023-05-08T13:24:16.990Z,72.3431
2023-05-08T13:25:18.249Z,72.4386
2023-05-08T13:26:19.563Z,72.5063
2023-05-08T13:27:20.701Z,72.5823
2023-05-08T13:28:22.212Z,72.6600
2023-05-08T13:29:23.459Z,72.7358
2023-05-08T13:30:23.598Z,72.7996
2023-05-08T13:31:23.604Z,72.8665
2023-05-08T13:32:23.924Z,72.9465
2023-05-08T13:33:24.042Z,73.0464
2023-05-08T13:34:25.214Z,73.1400
2023-05-08T13:35:26.328Z,73.2420
2023-05-08T13:36:27.538Z,73.3133
2023-05-08T13:37:28.807Z,73.3885
2023-05-08T13:38:29.930Z,73.4538
2023-05-08T13:39:31.135Z,73.5123
2023-05-08T13:40:32.372Z,73.5675
2023-05-08T13:41:33.558Z,73.6084
2023-05-08T13:42:34.765Z,73.6262
2023-05-08T13:43:35.848Z,73.6503
2023-05-08T13:44:37.025Z,73.6717
2023-05-08T13:45:37.825Z,73.6885
2023-05-08T13:46:38.002Z,73.7004
2023-05-08T13:47:39.213Z,73.6785
2023-05-08T13:48:40.755Z,73.6349
2023-05-08T13:49:41.974Z,73.5874
2023-05-08T13:50:43.149Z,73.5212
2023-05-08T13:51:52.023Z,73.4309